Lake Village, AR

6:59 AM CDT on July 24, 2016 (GMT -0500)
Q102 Downtown Greenville | | Change Station
Active Advisory: Heat Advisory Active Notice: Record Report

Elev 141 ft 33.41 °N, 91.06 °W | Updated 58 seconds ago

Clear
Clear
76.8 °F
Feels Like 77 °F
N
3.4
Wind Variable Wind from South
Gusts 3.4 mph

Today
High -- | Low -- °F
--% Chance of Precip.
Yesterday
High -- | Low -- °F
Precip. -- in
Pressure 29.98 in
Visibility 7.0 miles
Clouds Clear
Heat Index 77 °F
Dew Point 76 °F
Humidity 99%
Rainfall 0.00 in
Snow Depth Not available.
6:12 AM 8:10 PM
Waning Gibbous, 77% visible
METAR KGLH 241153Z AUTO 00000KT 7SM CLR 24/22 A2997 RMK AO2 SLP152 T02390222 10250 20239 53009
Pressure 29.98 in
Visibility 7.0 miles
Clouds Clear
Heat Index 77 °F
Dew Point 76 °F
Humidity 99%
Rainfall 0.00 in
Snow Depth Not available.
6:12 AM 8:10 PM
Waning Gibbous, 77% visible
METAR KGLH 241153Z AUTO 00000KT 7SM CLR 24/22 A2997 RMK AO2 SLP152 T02390222 10250 20239 53009

10-Day Weather Forecast

Almanac

Astronomy

Jul. 24, 2016 Rise Set
Actual Time
Civil Twilight
Nautical Twilight
Astronomical Twilight
Moon
Length of Visible Light
Length of Day
Tomorrow will be .
, % of the Moon is Illuminated

Today's Extremes

State Highs State Lows

Community

WunderPhotos

Upload Photos

1,927,049 photos uploaded!

WunderBlog® & News

Nearby

Air Quality

  Air Quality AQ Index Pollutant
Not available.

Snow Depth

Station Depth Elevation

Earthquake Activity

City Distance Mag. Time & Date
Minimum magnitude displayed is 2.5.

Coastal Water Temperatures

Place Temperature

Stations

Nearby Weather Stations

Station Location Temp. Windchill Dew Point Humidity Wind Precip. Elev Updated Type
                   

Watches & Warnings

Heat Advisory
Issued: 3:50 AM CDT Jul. 24, 2016 – National Weather Service

... Heat advisory in effect until 7 PM CDT this evening...

The National Weather Service in Jackson has issued a heat
advisory... which is in effect until 7 PM CDT this evening.

* Temperature... highs in the low to mid 90s combined with high
humidity levels will result in heat index readings above 105
degrees.

* Impacts... heat stress will reach dangerous levels and could
lead to heat exhaustion or heat stroke for those working
outdoors.

Precautionary/preparedness actions...

Take extra precautions... if you work or spend time outside. When
possible... reschedule strenuous activities to early morning or
evening. Know the signs and symptoms of heat exhaustion and heat
stroke. Wear light weight and loose fitting clothing when possible
and drink plenty of water.